createdAt,value
2022-12-20T00:02:28.175Z,99083.00
2022-12-20T00:04:58.226Z,99082.00
2022-12-20T00:07:28.088Z,99089.00
2022-12-20T00:09:57.962Z,99099.00
2022-12-20T00:12:27.923Z,99106.00
2022-12-20T00:15:00.374Z,99065.00
2022-12-20T00:17:30.393Z,99095.00
2022-12-20T00:20:00.294Z,99069.00
2022-12-20T00:22:30.204Z,99081.00
2022-12-20T00:25:00.109Z,99072.00
2022-12-20T00:27:30.033Z,99119.00
2022-12-20T00:30:02.569Z,99112.00
2022-12-20T00:32:32.535Z,99118.00
2022-12-20T00:35:02.448Z,99113.00
2022-12-20T00:37:32.293Z,99118.00
2022-12-20T00:40:02.278Z,99099.00
2022-12-20T00:42:32.160Z,99105.00
2022-12-20T00:45:05.557Z,99088.00
2022-12-20T00:47:35.480Z,99079.00
2022-12-20T00:50:05.337Z,99086.00
2022-12-20T00:52:35.189Z,99086.00
2022-12-20T00:55:07.194Z,99097.00
2022-12-20T00:57:37.031Z,99094.00
2022-12-20T01:00:11.714Z,99111.00
2022-12-20T01:02:41.869Z,99130.00
2022-12-20T01:05:12.319Z,99129.00
2022-12-20T01:07:42.231Z,99131.00
2022-12-20T01:10:13.758Z,99131.00
2022-12-20T01:12:43.792Z,99130.00
2022-12-20T01:15:17.440Z,99123.00
2022-12-20T01:17:47.485Z,99106.00
2022-12-20T01:20:17.591Z,99093.00
2022-12-20T01:22:47.869Z,99084.00
2022-12-20T01:25:18.069Z,99056.00
2022-12-20T01:27:48.101Z,99068.00
2022-12-20T01:30:20.912Z,99064.00
2022-12-20T01:32:50.910Z,99056.00
2022-12-20T01:35:21.138Z,99044.00
2022-12-20T01:37:51.446Z,99041.00
2022-12-20T01:40:21.599Z,99040.00
2022-12-20T01:42:51.463Z,99027.00
2022-12-20T01:45:30.038Z,99016.00
2022-12-20T01:48:00.803Z,99011.00
2022-12-20T01:50:32.497Z,99013.00
2022-12-20T01:53:04.369Z,98999.00
2022-12-20T01:55:35.796Z,98983.00
2022-12-20T01:58:08.901Z,98993.00
2022-12-20T02:00:41.687Z,98978.00
2022-12-20T02:03:13.592Z,98977.00
2022-12-20T02:05:47.061Z,98968.00
2022-12-20T02:08:20.831Z,98979.00
2022-12-20T02:11:03.500Z,98971.00
2022-12-20T02:13:40.994Z,98973.00
2022-12-20T02:16:18.339Z,98960.00
2022-12-20T02:18:52.560Z,98951.00
2022-12-20T02:21:29.927Z,98968.00
2022-12-20T02:24:32.908Z,98976.00
2022-12-20T02:27:29.073Z,98982.00
2022-12-20T02:30:07.157Z,98971.00
2022-12-20T02:32:40.442Z,98961.00
2022-12-20T02:35:12.807Z,98958.00
2022-12-20T02:37:51.202Z,98962.00
2022-12-20T02:40:26.419Z,98948.00
2022-12-20T02:42:59.022Z,98963.00
2022-12-20T02:45:34.133Z,98935.00
2022-12-20T02:48:06.730Z,98940.00
2022-12-20T02:50:40.336Z,98932.00
2022-12-20T02:53:11.494Z,98935.00
2022-12-20T02:55:45.140Z,98940.00
2022-12-20T02:58:19.644Z,98922.00
2022-12-20T03:00:54.068Z,98919.00
2022-12-20T03:03:27.730Z,98919.00
2022-12-20T03:05:58.656Z,98920.00
2022-12-20T03:08:29.323Z,98928.00
2022-12-20T03:10:59.717Z,98920.00
2022-12-20T03:13:31.103Z,98926.00
2022-12-20T03:16:10.835Z,98929.00
2022-12-20T03:18:41.694Z,98929.00
2022-12-20T03:21:11.655Z,98924.00
2022-12-20T03:23:41.599Z,98919.00
2022-12-20T03:26:12.193Z,98919.00
2022-12-20T03:28:48.863Z,98904.00
2022-12-20T03:31:25.500Z,98899.00
2022-12-20T03:33:58.120Z,98906.00
2022-12-20T03:36:28.166Z,235282.00
2022-12-20T03:39:02.077Z,235282.00
2022-12-20T03:41:35.180Z,235282.00
2022-12-20T03:44:05.561Z,235282.00
2022-12-20T03:46:38.400Z,235282.00
2022-12-20T03:49:08.400Z,235282.00
2022-12-20T03:51:45.608Z,235282.00
2022-12-20T03:54:15.608Z,98876.00
2022-12-20T03:57:02.788Z,235282.00
2022-12-20T03:59:33.782Z,235282.00
2022-12-20T04:02:06.818Z,235282.00
2022-12-20T04:04:37.220Z,235282.00
2022-12-20T04:07:07.135Z,235282.00
2022-12-20T04:09:39.705Z,98835.00
2022-12-20T04:12:14.589Z,98822.00
2022-12-20T04:14:44.583Z,98853.00
2022-12-20T04:17:18.348Z,98840.00
2022-12-20T04:19:49.668Z,98840.00
2022-12-20T04:22:20.785Z,98823.00
2022-12-20T04:25:04.031Z,98812.00
2022-12-20T04:27:39.000Z,98813.00
2022-12-20T04:30:12.527Z,98799.00
2022-12-20T04:32:45.201Z,98804.00
2022-12-20T04:35:15.189Z,98787.00
2022-12-20T04:37:45.968Z,98780.00
2022-12-20T04:40:17.345Z,98792.00
2022-12-20T04:42:54.219Z,98800.00
2022-12-20T04:45:24.391Z,98781.00
2022-12-20T04:47:58.260Z,98803.00
2022-12-20T04:50:36.963Z,98785.00
2022-12-20T04:53:19.542Z,98786.00
2022-12-20T04:55:50.041Z,98823.00
2022-12-20T04:58:20.192Z,98800.00
2022-12-20T05:00:52.409Z,98807.00
2022-12-20T05:03:31.480Z,98812.00
2022-12-20T05:06:01.570Z,98813.00
2022-12-20T05:08:31.779Z,98804.00
2022-12-20T05:11:01.930Z,98805.00
2022-12-20T05:13:32.360Z,98801.00
2022-12-20T05:16:04.198Z,98802.00
2022-12-20T05:18:46.454Z,98810.00
2022-12-20T05:21:31.639Z,98828.00
2022-12-20T05:24:14.277Z,98854.00
2022-12-20T05:27:00.537Z,98862.00
2022-12-20T05:29:30.683Z,235282.00
2022-12-20T05:32:00.909Z,235282.00
2022-12-20T05:34:34.263Z,98894.00
2022-12-20T05:37:04.352Z,98885.00
2022-12-20T05:39:37.069Z,98897.00
2022-12-20T05:42:13.321Z,98876.00
2022-12-20T05:44:43.413Z,98887.00
2022-12-20T05:47:13.673Z,98889.00
2022-12-20T05:49:47.346Z,98899.00
2022-12-20T05:52:17.462Z,98928.00
2022-12-20T05:54:47.651Z,98913.00
2022-12-20T05:57:19.827Z,98910.00
2022-12-20T05:59:49.976Z,98904.00
2022-12-20T06:02:23.229Z,98898.00
2022-12-20T06:05:02.932Z,98877.00
2022-12-20T06:07:33.867Z,98864.00
2022-12-20T06:10:03.781Z,98879.00
2022-12-20T06:12:50.758Z,98883.00
2022-12-20T06:15:21.298Z,98894.00
2022-12-20T06:17:51.446Z,98891.00
2022-12-20T06:20:24.340Z,98891.00
2022-12-20T06:22:55.522Z,98880.00
2022-12-20T06:25:25.824Z,98885.00
2022-12-20T06:27:56.220Z,98877.00
2022-12-20T06:30:33.383Z,98907.00
2022-12-20T06:33:11.009Z,98885.00
2022-12-20T06:35:43.830Z,98873.00
2022-12-20T06:38:15.269Z,98884.00
2022-12-20T06:40:45.771Z,98869.00
2022-12-20T06:43:15.941Z,98886.00
2022-12-20T06:45:46.078Z,98873.00
2022-12-20T06:48:16.118Z,98913.00
2022-12-20T06:50:55.852Z,98927.00
2022-12-20T06:53:27.333Z,98926.00
2022-12-20T06:55:57.277Z,98950.00
2022-12-20T06:58:27.444Z,98943.00
2022-12-20T07:00:57.848Z,98950.00
2022-12-20T07:03:28.417Z,98957.00
2022-12-20T07:06:01.402Z,98967.00
2022-12-20T07:08:31.649Z,98929.00
2022-12-20T07:11:06.915Z,98925.00
2022-12-20T07:13:37.325Z,98925.00
2022-12-20T07:16:08.619Z,98942.00
2022-12-20T07:18:38.627Z,98943.00
2022-12-20T07:21:11.402Z,98933.00
2022-12-20T07:23:41.427Z,98916.00
2022-12-20T07:26:13.208Z,98926.00
2022-12-20T07:28:44.124Z,98928.00
2022-12-20T07:31:14.141Z,98943.00
2022-12-20T07:33:44.163Z,98947.00
2022-12-20T07:36:17.608Z,98947.00
2022-12-20T07:38:47.628Z,98944.00
2022-12-20T07:41:19.636Z,98937.00
2022-12-20T07:43:49.783Z,98916.00
2022-12-20T07:46:20.271Z,98929.00
2022-12-20T07:48:50.338Z,98931.00
2022-12-20T07:51:26.960Z,98920.00
2022-12-20T07:53:59.381Z,98921.00
2022-12-20T07:56:29.937Z,98914.00
2022-12-20T07:59:01.887Z,98894.00
2022-12-20T08:01:33.194Z,98907.00
2022-12-20T08:04:06.495Z,98881.00
2022-12-20T08:06:40.636Z,98893.00
2022-12-20T08:09:12.871Z,98896.00
2022-12-20T08:11:44.585Z,98919.00
2022-12-20T08:14:14.843Z,98935.00
2022-12-20T08:16:44.814Z,98915.00
2022-12-20T08:19:14.764Z,98912.00
2022-12-20T08:21:47.316Z,98908.00
2022-12-20T08:24:17.323Z,98907.00
2022-12-20T08:26:47.237Z,98907.00
2022-12-20T08:29:17.587Z,98899.00
2022-12-20T08:31:50.269Z,98897.00
2022-12-20T08:34:21.439Z,98913.00
2022-12-20T08:36:53.944Z,98920.00
2022-12-20T08:39:24.008Z,98926.00
2022-12-20T08:41:53.880Z,98922.00
2022-12-20T08:44:23.821Z,98919.00
2022-12-20T08:46:54.526Z,98926.00
2022-12-20T08:49:24.700Z,98923.00
2022-12-20T08:51:57.315Z,98948.00
2022-12-20T08:54:27.216Z,98940.00
2022-12-20T08:57:00.222Z,98937.00
2022-12-20T08:59:30.121Z,98925.00
2022-12-20T09:02:00.106Z,98911.00
2022-12-20T09:04:30.214Z,98909.00
2022-12-20T09:07:02.925Z,98924.00
2022-12-20T09:09:33.070Z,98907.00
2022-12-20T09:12:03.152Z,98903.00
2022-12-20T09:14:33.119Z,98904.00
2022-12-20T09:17:03.015Z,98901.00
2022-12-20T09:19:33.156Z,98905.00
2022-12-20T09:22:05.817Z,98893.00
2022-12-20T09:24:35.927Z,98893.00
2022-12-20T09:27:05.907Z,98892.00
2022-12-20T09:29:36.252Z,98913.00
2022-12-20T09:32:06.333Z,98885.00
2022-12-20T09:34:36.419Z,98879.00
2022-12-20T09:37:09.463Z,98863.00
2022-12-20T09:39:39.632Z,98863.00
2022-12-20T09:42:11.695Z,98878.00
2022-12-20T09:44:43.455Z,98879.00
2022-12-20T09:47:18.750Z,98870.00
2022-12-20T09:49:50.383Z,98874.00
2022-12-20T09:52:34.851Z,98885.00
2022-12-20T09:55:14.851Z,98886.00
2022-12-20T09:57:55.521Z,98880.00
2022-12-20T10:00:26.100Z,98871.00
2022-12-20T10:03:04.265Z,98886.00
2022-12-20T10:05:42.135Z,98880.00
2022-12-20T10:08:20.375Z,98877.00
2022-12-20T10:11:00.724Z,98860.00
2022-12-20T10:13:44.360Z,98868.00
2022-12-20T10:16:38.813Z,98841.00
2022-12-20T10:19:19.421Z,98854.00
2022-12-20T10:21:56.781Z,98826.00
2022-12-20T10:24:33.588Z,98831.00
2022-12-20T10:27:10.508Z,98831.00
2022-12-20T10:29:41.000Z,98816.00
2022-12-20T10:32:15.934Z,98810.00
2022-12-20T10:34:54.905Z,98818.00
2022-12-20T10:37:25.212Z,98832.00
2022-12-20T10:40:01.977Z,98826.00
2022-12-20T10:42:40.936Z,98825.00
2022-12-20T10:45:35.827Z,98812.00
2022-12-20T10:48:08.773Z,98816.00
2022-12-20T10:50:38.731Z,98808.00
2022-12-20T10:53:24.939Z,98818.00
2022-12-20T10:56:08.049Z,98821.00
2022-12-20T10:58:39.787Z,98822.00
2022-12-20T11:01:15.850Z,98827.00
2022-12-20T11:03:58.115Z,98803.00
2022-12-20T11:06:31.788Z,98811.00
2022-12-20T11:09:26.276Z,98821.00
2022-12-20T11:12:08.357Z,98837.00
2022-12-20T11:14:40.546Z,98823.00
2022-12-20T11:17:24.403Z,98817.00
2022-12-20T11:20:16.388Z,98807.00
2022-12-20T11:22:54.155Z,98795.00
2022-12-20T11:25:35.297Z,98805.00
2022-12-20T11:28:27.857Z,98808.00
2022-12-20T11:31:07.579Z,98775.00
2022-12-20T11:33:46.210Z,98798.00
2022-12-20T11:36:22.069Z,98802.00
2022-12-20T11:38:56.074Z,98808.00
2022-12-20T11:41:32.908Z,98807.00
2022-12-20T11:44:28.069Z,98805.00
2022-12-20T11:47:11.171Z,98809.00
2022-12-20T11:49:53.409Z,98804.00
2022-12-20T11:52:40.424Z,98806.00
2022-12-20T11:55:21.462Z,98807.00
2022-12-20T12:00:56.394Z,98810.00
2022-12-20T12:03:31.906Z,98799.00
2022-12-20T12:06:04.030Z,98800.00
2022-12-20T12:08:41.770Z,98814.00
2022-12-20T12:11:55.711Z,98824.00
2022-12-20T12:14:08.539Z,98818.00
2022-12-20T12:16:45.212Z,98811.00
2022-12-20T12:19:16.289Z,98809.00
2022-12-20T12:21:51.501Z,98800.00
2022-12-20T12:24:26.866Z,98796.00
2022-12-20T12:26:57.361Z,98785.00
2022-12-20T12:29:27.886Z,98772.00
2022-12-20T12:32:03.912Z,98764.00
2022-12-20T12:34:45.441Z,98775.00
2022-12-20T12:37:35.217Z,98768.00
2022-12-20T12:40:25.194Z,98768.00
2022-12-20T12:43:33.625Z,98774.00
2022-12-20T12:46:07.200Z,98787.00
2022-12-20T12:48:46.219Z,98777.00
2022-12-20T12:51:17.637Z,98779.00
2022-12-20T12:53:51.608Z,98779.00
2022-12-20T12:56:44.889Z,98775.00
2022-12-20T12:59:51.976Z,98787.00
2022-12-20T13:02:38.093Z,98778.00
2022-12-20T13:05:38.567Z,98781.00
2022-12-20T13:08:19.376Z,98780.00
2022-12-20T13:11:04.138Z,98788.00
2022-12-20T13:13:35.424Z,98804.00
2022-12-20T13:17:09.939Z,98782.00
2022-12-20T13:19:33.030Z,98765.00
2022-12-20T13:22:23.059Z,98772.00
2022-12-20T13:24:58.278Z,98770.00
2022-12-20T13:27:34.089Z,98799.00
2022-12-20T13:30:29.135Z,98785.00
2022-12-20T13:33:21.531Z,98787.00
2022-12-20T13:36:08.262Z,98783.00
2022-12-20T13:38:56.655Z,98776.00
2022-12-20T13:41:35.801Z,98780.00
2022-12-20T13:44:21.116Z,98793.00
2022-12-20T13:46:54.515Z,98778.00
2022-12-20T13:49:28.449Z,98770.00
2022-12-20T13:52:27.090Z,98786.00
2022-12-20T13:55:01.871Z,98798.00
2022-12-20T13:57:34.773Z,98798.00
2022-12-20T14:00:09.501Z,98760.00
2022-12-20T14:02:44.068Z,98774.00
2022-12-20T14:05:20.883Z,98768.00
2022-12-20T14:07:55.138Z,98761.00
2022-12-20T14:10:30.441Z,98760.00
2022-12-20T14:13:00.947Z,98741.00
2022-12-20T14:15:32.846Z,98748.00
2022-12-20T14:18:08.911Z,98771.00
2022-12-20T14:20:40.966Z,98759.00
2022-12-20T14:23:15.842Z,98752.00
2022-12-20T14:25:50.844Z,98766.00
2022-12-20T14:28:30.858Z,98718.00
2022-12-20T14:31:02.142Z,98725.00
2022-12-20T14:33:35.097Z,98718.00
2022-12-20T14:36:19.433Z,98746.00
2022-12-20T14:38:51.195Z,98733.00
2022-12-20T14:41:42.391Z,98741.00
2022-12-20T14:44:19.255Z,98733.00
2022-12-20T14:46:53.735Z,98731.00
2022-12-20T14:49:27.207Z,98727.00
2022-12-20T14:52:10.361Z,98710.00
2022-12-20T14:57:48.837Z,98696.00
2022-12-20T15:00:24.955Z,98705.00
2022-12-20T15:03:02.773Z,98732.00
2022-12-20T15:05:48.850Z,98732.00
2022-12-20T15:08:21.564Z,98713.00
2022-12-20T15:10:56.916Z,98703.00
2022-12-20T15:13:32.038Z,98704.00
2022-12-20T15:16:04.700Z,98729.00
2022-12-20T15:18:35.437Z,98717.00
2022-12-20T15:21:08.671Z,98706.00
2022-12-20T15:23:39.006Z,98695.00
2022-12-20T15:26:09.139Z,98690.00
2022-12-20T15:28:41.713Z,98698.00
2022-12-20T15:31:14.328Z,98691.00
2022-12-20T15:33:45.565Z,98698.00
2022-12-20T15:36:17.020Z,98703.00
2022-12-20T15:41:37.980Z,98716.00
2022-12-20T15:44:15.547Z,98696.00
2022-12-20T15:46:45.713Z,98697.00
2022-12-20T15:49:19.773Z,98673.00
2022-12-20T15:51:51.247Z,98702.00
2022-12-20T15:54:27.646Z,98680.00
2022-12-20T15:56:58.733Z,98680.00
2022-12-20T16:00:02.725Z,98677.00
2022-12-20T16:02:24.896Z,98683.00
2022-12-20T16:04:55.790Z,98686.00
2022-12-20T16:07:26.030Z,98665.00
2022-12-20T16:09:56.012Z,98662.00
2022-12-20T16:12:28.911Z,98675.00
2022-12-20T16:27:51.233Z,98643.00
2022-12-20T16:30:22.494Z,98633.00
2022-12-20T16:32:52.639Z,98623.00
2022-12-20T16:35:28.122Z,98623.00
2022-12-20T16:37:58.865Z,98618.00
2022-12-20T16:40:30.677Z,98624.00
2022-12-20T16:43:03.572Z,98618.00
2022-12-20T16:45:34.870Z,98632.00
2022-12-20T16:48:04.890Z,98643.00
2022-12-20T16:50:36.081Z,98652.00
2022-12-20T16:53:06.112Z,98643.00
2022-12-20T16:55:39.981Z,98639.00
2022-12-20T16:58:13.295Z,98628.00
2022-12-20T17:00:43.477Z,98638.00
2022-12-20T17:03:13.754Z,98633.00
2022-12-20T17:05:43.797Z,98630.00
2022-12-20T17:10:58.877Z,98626.00
2022-12-20T17:13:31.887Z,98603.00
2022-12-20T17:16:01.879Z,98600.00
2022-12-20T17:18:32.013Z,98601.00
2022-12-20T17:21:04.118Z,98603.00
2022-12-20T17:23:43.889Z,98623.00
2022-12-20T17:26:16.100Z,98610.00
2022-12-20T17:28:48.973Z,98608.00
2022-12-20T17:31:26.110Z,98612.00
2022-12-20T17:33:56.608Z,98605.00
2022-12-20T17:36:27.474Z,98602.00
2022-12-20T17:38:58.778Z,98601.00
2022-12-20T17:41:30.650Z,98600.00
2022-12-20T17:44:04.847Z,98566.00
2022-12-20T17:46:35.270Z,98582.00
2022-12-20T17:49:05.314Z,98581.00
2022-12-20T17:51:35.346Z,98582.00
2022-12-20T17:54:05.381Z,98603.00
2022-12-20T17:56:36.917Z,98587.00
2022-12-20T17:59:09.551Z,98601.00
2022-12-20T18:01:40.721Z,98603.00
2022-12-20T18:04:13.434Z,98599.00
2022-12-20T18:06:45.120Z,98586.00
2022-12-20T18:09:16.765Z,98592.00
2022-12-20T18:11:46.801Z,98600.00
2022-12-20T18:14:19.521Z,98583.00
2022-12-20T18:16:49.980Z,98586.00
2022-12-20T18:19:21.471Z,98581.00
2022-12-20T18:21:51.559Z,98600.00
2022-12-20T18:24:22.020Z,98611.00
2022-12-20T18:26:52.039Z,98615.00
2022-12-20T18:29:24.686Z,98611.00
2022-12-20T18:31:55.662Z,98620.00
2022-12-20T18:34:25.937Z,98620.00
2022-12-20T18:36:55.896Z,98606.00
2022-12-20T18:39:25.895Z,98608.00
2022-12-20T18:41:56.279Z,98599.00
2022-12-20T18:44:29.222Z,98598.00
2022-12-20T18:46:59.235Z,98604.00
2022-12-20T18:49:29.252Z,98600.00
2022-12-20T18:51:59.315Z,98589.00
2022-12-20T18:54:30.492Z,98591.00
2022-12-20T18:57:00.639Z,98602.00
2022-12-20T18:59:33.309Z,98591.00
2022-12-20T19:02:04.007Z,98595.00
2022-12-20T19:04:34.367Z,98599.00
2022-12-20T19:07:04.427Z,98592.00
2022-12-20T19:09:34.471Z,98571.00
2022-12-20T19:12:04.468Z,98554.00
2022-12-20T19:14:37.168Z,98557.00
2022-12-20T19:17:07.811Z,98540.00
2022-12-20T19:19:37.859Z,98550.00
2022-12-20T19:22:07.874Z,98555.00
2022-12-20T19:24:37.889Z,98559.00
2022-12-20T19:27:09.527Z,98549.00
2022-12-20T19:29:42.216Z,98557.00
2022-12-20T19:32:12.187Z,98564.00
2022-12-20T19:34:42.512Z,98543.00
2022-12-20T19:37:13.235Z,98566.00
2022-12-20T19:39:43.491Z,98562.00
2022-12-20T19:42:29.897Z,98555.00
2022-12-20T19:45:02.507Z,98523.00
2022-12-20T19:47:33.729Z,98517.00
2022-12-20T19:50:06.049Z,98510.00
2022-12-20T19:52:36.789Z,98534.00
2022-12-20T19:55:07.319Z,98560.00
2022-12-20T19:57:38.140Z,98540.00
2022-12-20T20:00:12.663Z,98538.00
2022-12-20T20:02:42.870Z,98528.00
2022-12-20T20:05:15.446Z,98513.00
2022-12-20T20:07:46.265Z,98508.00
2022-12-20T20:10:16.309Z,98481.00
2022-12-20T20:12:46.294Z,98499.00
2022-12-20T20:15:19.054Z,98503.00
2022-12-20T20:17:49.122Z,98496.00
2022-12-20T20:20:19.420Z,98519.00
2022-12-20T20:22:49.424Z,98505.00
2022-12-20T20:25:19.563Z,98480.00
2022-12-20T20:27:49.605Z,98488.00
2022-12-20T20:30:24.699Z,98487.00
2022-12-20T20:32:54.757Z,98485.00
2022-12-20T20:35:24.829Z,98477.00
2022-12-20T20:37:55.506Z,98487.00
2022-12-20T20:40:25.685Z,98487.00
2022-12-20T20:42:55.912Z,98495.00
2022-12-20T20:45:28.904Z,98483.00
2022-12-20T20:48:05.511Z,98487.00
2022-12-20T20:50:36.743Z,98491.00
2022-12-20T20:53:07.214Z,98474.00
2022-12-20T20:55:37.234Z,98487.00
2022-12-20T20:58:07.311Z,98494.00
2022-12-20T21:00:39.973Z,98502.00
2022-12-20T21:03:11.454Z,98485.00
2022-12-20T21:08:31.696Z,98502.00
2022-12-20T21:11:01.958Z,98482.00
2022-12-20T21:13:32.043Z,98484.00
2022-12-20T21:16:11.376Z,98477.00
2022-12-20T21:18:41.504Z,98479.00
2022-12-20T21:21:12.735Z,98479.00
2022-12-20T21:23:46.147Z,98494.00
2022-12-20T21:26:16.340Z,98526.00
2022-12-20T21:28:46.655Z,98537.00
2022-12-20T21:31:20.593Z,98524.00
2022-12-20T21:33:50.615Z,98502.00
2022-12-20T21:36:21.759Z,98484.00
2022-12-20T21:38:53.061Z,98475.00
2022-12-20T21:41:24.295Z,98484.00
2022-12-20T21:43:54.617Z,98461.00
2022-12-20T21:46:28.025Z,98433.00
2022-12-20T21:49:02.138Z,98412.00
2022-12-20T21:51:33.123Z,98404.00
2022-12-20T21:54:04.800Z,98416.00
2022-12-20T21:56:36.281Z,98413.00
2022-12-20T21:59:07.542Z,98430.00
2022-12-20T22:01:40.342Z,98429.00
2022-12-20T22:04:10.533Z,98425.00
2022-12-20T22:06:40.850Z,98437.00
2022-12-20T22:09:12.551Z,98453.00
2022-12-20T22:11:42.852Z,98450.00
2022-12-20T22:14:15.091Z,98427.00
2022-12-20T22:16:47.781Z,98424.00
2022-12-20T22:19:18.065Z,98409.00
2022-12-20T22:21:52.350Z,98407.00
2022-12-20T22:24:27.253Z,98407.00
2022-12-20T22:26:57.317Z,98410.00
2022-12-20T22:29:27.356Z,98400.00
2022-12-20T22:32:00.137Z,98391.00
2022-12-20T22:34:30.395Z,98402.00
2022-12-20T22:37:00.608Z,98411.00
2022-12-20T22:39:30.545Z,98418.00
2022-12-20T22:42:00.658Z,98397.00
2022-12-20T22:44:30.668Z,98374.00
2022-12-20T22:47:03.285Z,98371.00
2022-12-20T22:49:33.293Z,98377.00
2022-12-20T22:52:07.710Z,98376.00
2022-12-20T22:54:38.086Z,98380.00
2022-12-20T22:57:10.493Z,98371.00
2022-12-20T22:59:40.511Z,98359.00
2022-12-20T23:02:13.332Z,98356.00
2022-12-20T23:04:43.600Z,98334.00
2022-12-20T23:07:13.595Z,98341.00
2022-12-20T23:09:43.618Z,98344.00
2022-12-20T23:12:26.192Z,98348.00
2022-12-20T23:15:08.565Z,98349.00
2022-12-20T23:17:41.292Z,98354.00
2022-12-20T23:20:24.899Z,98359.00
2022-12-20T23:22:55.457Z,98364.00
2022-12-20T23:25:25.605Z,98351.00
2022-12-20T23:27:56.114Z,98336.00
2022-12-20T23:30:27.246Z,98328.00
2022-12-20T23:32:59.949Z,98332.00
2022-12-20T23:35:29.964Z,98336.00
2022-12-20T23:37:59.887Z,98349.00
2022-12-20T23:40:29.901Z,98350.00
2022-12-20T23:42:59.872Z,98345.00
2022-12-20T23:45:29.944Z,98355.00
2022-12-20T23:48:02.549Z,98356.00
2022-12-20T23:50:32.770Z,98350.00
2022-12-20T23:53:02.866Z,98344.00
2022-12-20T23:55:32.843Z,98335.00
2022-12-20T23:58:03.253Z,98341.00
